sensor_id;sensor_type;location;lat;lon;timestamp;pressure;altitude;pressure_sealevel;temperature;humidity
62980;BME280;49075;53.988;27.678;2022-12-29T00:05:09;983.9;;;-1.7;84.4
62980;BME280;49075;53.988;27.678;2022-12-29T00:09:57;983.9;;;-1.7;84.7
62980;BME280;49075;53.988;27.678;2022-12-29T00:15:06;983.9;;;-1.7;84.7
62980;BME280;49075;53.988;27.678;2022-12-29T00:19:47;983.9;;;-1.6;84.5
62980;BME280;49075;53.988;27.678;2022-12-29T00:24:47;983.9;;;-1.8;85.1
62980;BME280;49075;53.988;27.678;2022-12-29T00:30:14;983.8;;;-1.8;85.3
62980;BME280;49075;53.988;27.678;2022-12-29T00:35:15;983.8;;;-1.9;85.5
62980;BME280;49075;53.988;27.678;2022-12-29T00:39:35;983.8;;;-1.9;85.5
62980;BME280;49075;53.988;27.678;2022-12-29T00:44:51;983.8;;;-1.8;85.2
62980;BME280;49075;53.988;27.678;2022-12-29T00:49:41;983.8;;;-1.6;84.6
62980;BME280;49075;53.988;27.678;2022-12-29T00:55:11;983.7;;;-1.7;84.9
62980;BME280;49075;53.988;27.678;2022-12-29T01:00:01;983.7;;;-1.7;84.9
62980;BME280;49075;53.988;27.678;2022-12-29T01:04:51;983.7;;;-1.7;84.8
62980;BME280;49075;53.988;27.678;2022-12-29T01:09:37;983.7;;;-1.6;84.6
62980;BME280;49075;53.988;27.678;2022-12-29T01:15:06;983.6;;;-1.6;84.6
62980;BME280;49075;53.988;27.678;2022-12-29T01:20:15;983.5;;;-1.6;84.6
62980;BME280;49075;53.988;27.678;2022-12-29T01:24:43;983.5;;;-1.6;84.6
62980;BME280;49075;53.988;27.678;2022-12-29T01:29:45;983.5;;;-1.6;84.6
62980;BME280;49075;53.988;27.678;2022-12-29T01:34:41;983.4;;;-1.5;84.4
62980;BME280;49075;53.988;27.678;2022-12-29T01:40:13;983.4;;;-1.5;84.3
62980;BME280;49075;53.988;27.678;2022-12-29T01:45:14;983.4;;;-1.5;84.3
62980;BME280;49075;53.988;27.678;2022-12-29T01:50:07;983.4;;;-1.5;84.3
62980;BME280;49075;53.988;27.678;2022-12-29T01:55:03;983.4;;;-1.5;84.3
62980;BME280;49075;53.988;27.678;2022-12-29T01:59:42;983.3;;;-1.4;83.8
62980;BME280;49075;53.988;27.678;2022-12-29T02:04:38;983.3;;;-1.4;84.2
62980;BME280;49075;53.988;27.678;2022-12-29T02:10:11;983.2;;;-1.4;84.2
62980;BME280;49075;53.988;27.678;2022-12-29T02:14:41;983.2;;;-1.4;84.2
62980;BME280;49075;53.988;27.678;2022-12-29T02:19:52;983.1;;;-1.3;84.1
62980;BME280;49075;53.988;27.678;2022-12-29T02:25:06;983.1;;;-1.3;83.9
62980;BME280;49075;53.988;27.678;2022-12-29T02:30:05;983.1;;;-1.4;84
62980;BME280;49075;53.988;27.678;2022-12-29T02:35:17;983.1;;;-1.3;83.9
62980;BME280;49075;53.988;27.678;2022-12-29T02:40:06;983.1;;;-1.3;83.9
62980;BME280;49075;53.988;27.678;2022-12-29T02:44:59;983.1;;;-1.3;83.9
62980;BME280;49075;53.988;27.678;2022-12-29T02:49:48;983;;;-1.2;83.7
62980;BME280;49075;53.988;27.678;2022-12-29T02:54:58;983.1;;;-1.3;83.9
62980;BME280;49075;53.988;27.678;2022-12-29T03:00:17;983;;;-1.4;84.7
62980;BME280;49075;53.988;27.678;2022-12-29T03:05:04;983;;;-1.4;84.7
62980;BME280;49075;53.988;27.678;2022-12-29T03:09:39;983;;;-1.3;84.3
62980;BME280;49075;53.988;27.678;2022-12-29T03:14:39;983;;;-1.4;84.8
62980;BME280;49075;53.988;27.678;2022-12-29T03:19:38;983;;;-1.2;84.2
62980;BME280;49075;53.988;27.678;2022-12-29T03:25:19;983;;;-1.2;84.3
62980;BME280;49075;53.988;27.678;2022-12-29T03:30:07;983;;;-1.2;84.3
62980;BME280;49075;53.988;27.678;2022-12-29T03:35:06;983;;;-1.2;84.2
62980;BME280;49075;53.988;27.678;2022-12-29T03:39:37;983.1;;;-1.2;84.5
62980;BME280;49075;53.988;27.678;2022-12-29T03:44:43;983.1;;;-1.3;85.1
62980;BME280;49075;53.988;27.678;2022-12-29T03:50:15;983.1;;;-1.4;85.5
62980;BME280;49075;53.988;27.678;2022-12-29T03:54:37;983.1;;;-1.4;85.5
62980;BME280;49075;53.988;27.678;2022-12-29T03:59:51;983;;;-1.3;85.3
62980;BME280;49075;53.988;27.678;2022-12-29T04:04:55;983;;;-1.2;85
62980;BME280;49075;53.988;27.678;2022-12-29T04:09:45;982.9;;;-1.3;85.7
62980;BME280;49075;53.988;27.678;2022-12-29T04:15:17;982.9;;;-1.2;85.4
62980;BME280;49075;53.988;27.678;2022-12-29T04:20:08;982.9;;;-1.2;85.4
62980;BME280;49075;53.988;27.678;2022-12-29T04:25:09;983;;;-1.3;85.8
62980;BME280;49075;53.988;27.678;2022-12-29T04:30:19;983;;;-1.3;85.6
62980;BME280;49075;53.988;27.678;2022-12-29T04:34:55;983;;;-1.3;85.6
62980;BME280;49075;53.988;27.678;2022-12-29T04:40:15;982.9;;;-1.1;84.9
62980;BME280;49075;53.988;27.678;2022-12-29T04:44:47;982.9;;;-1.1;84.9
62980;BME280;49075;53.988;27.678;2022-12-29T04:49:53;982.9;;;-1;84.6
62980;BME280;49075;53.988;27.678;2022-12-29T04:54:53;982.9;;;-0.9;84.5
62980;BME280;49075;53.988;27.678;2022-12-29T04:59:45;982.9;;;-1;84.8
62980;BME280;49075;53.988;27.678;2022-12-29T05:05:13;982.9;;;-0.8;84.4
62980;BME280;49075;53.988;27.678;2022-12-29T05:10:04;982.9;;;-0.8;84.4
62980;BME280;49075;53.988;27.678;2022-12-29T05:14:47;982.9;;;-0.9;84.6
62980;BME280;49075;53.988;27.678;2022-12-29T05:19:37;982.8;;;-0.9;84.4
62980;BME280;49075;53.988;27.678;2022-12-29T05:24:43;982.8;;;-1;85
62980;BME280;49075;53.988;27.678;2022-12-29T05:30:15;982.8;;;-0.9;84.9
62980;BME280;49075;53.988;27.678;2022-12-29T05:34:47;982.8;;;-0.9;84.9
62980;BME280;49075;53.988;27.678;2022-12-29T05:40:06;982.8;;;-1;85
62980;BME280;49075;53.988;27.678;2022-12-29T05:45:17;983;;;-1;85.3
62980;BME280;49075;53.988;27.678;2022-12-29T05:50:15;983;;;-1.1;85.7
62980;BME280;49075;53.988;27.678;2022-12-29T05:55:06;983;;;-1.1;85.7
62980;BME280;49075;53.988;27.678;2022-12-29T06:00:08;983;;;-0.9;85
62980;BME280;49075;53.988;27.678;2022-12-29T06:04:35;982.9;;;-0.9;84.8
62980;BME280;49075;53.988;27.678;2022-12-29T06:09:35;983;;;-1;85.2
62980;BME280;49075;53.988;27.678;2022-12-29T06:15:06;983;;;-0.9;85
62980;BME280;49075;53.988;27.678;2022-12-29T06:20:15;982.9;;;-0.9;84.9
62980;BME280;49075;53.988;27.678;2022-12-29T06:24:43;982.9;;;-0.9;84.9
62980;BME280;49075;53.988;27.678;2022-12-29T06:29:51;982.9;;;-0.9;84.8
62980;BME280;49075;53.988;27.678;2022-12-29T06:35:15;983.1;;;-0.8;84.5
62980;BME280;49075;53.988;27.678;2022-12-29T06:40:06;983.1;;;-0.8;84.5
62980;BME280;49075;53.988;27.678;2022-12-29T06:45:09;983;;;-0.7;84.2
62980;BME280;49075;53.988;27.678;2022-12-29T06:50:09;983;;;-0.6;83.9
62980;BME280;49075;53.988;27.678;2022-12-29T06:54:47;983;;;-0.6;83.9
62980;BME280;49075;53.988;27.678;2022-12-29T07:00:17;983;;;-0.6;83.8
62980;BME280;49075;53.988;27.678;2022-12-29T07:05:06;983;;;-0.6;83.8
62980;BME280;49075;53.988;27.678;2022-12-29T07:10:17;983;;;-0.5;83.6
62980;BME280;49075;53.988;27.678;2022-12-29T07:14:43;983;;;-0.5;83.6
62980;BME280;49075;53.988;27.678;2022-12-29T07:19:53;982.9;;;-0.5;83.5
62980;BME280;49075;53.988;27.678;2022-12-29T07:25:06;983;;;-0.4;83.3
62980;BME280;49075;53.988;27.678;2022-12-29T07:30:17;983;;;-0.4;83.4
62980;BME280;49075;53.988;27.678;2022-12-29T07:35:06;983;;;-0.4;83.4
62980;BME280;49075;53.988;27.678;2022-12-29T07:40:06;983;;;-0.4;83.3
62980;BME280;49075;53.988;27.678;2022-12-29T07:44:46;983;;;-0.5;83.6
62980;BME280;49075;53.988;27.678;2022-12-29T07:49:35;983.1;;;-0.7;84.4
62980;BME280;49075;53.988;27.678;2022-12-29T07:54:53;983.1;;;-0.8;84.7
62980;BME280;49075;53.988;27.678;2022-12-29T08:00:17;983;;;-0.8;85
62980;BME280;49075;53.988;27.678;2022-12-29T08:04:47;983;;;-0.8;85
62980;BME280;49075;53.988;27.678;2022-12-29T08:09:55;983;;;-0.8;85
62980;BME280;49075;53.988;27.678;2022-12-29T08:15:17;983;;;-0.8;85.2
62980;BME280;49075;53.988;27.678;2022-12-29T08:20:21;982.9;;;-0.8;85.3
62980;BME280;49075;53.988;27.678;2022-12-29T08:25:11;982.9;;;-0.8;85.5
62980;BME280;49075;53.988;27.678;2022-12-29T08:30:02;982.9;;;-0.8;85.5
62980;BME280;49075;53.988;27.678;2022-12-29T08:34:57;982.8;;;-0.9;85.6
62980;BME280;49075;53.988;27.678;2022-12-29T08:39:55;982.8;;;-0.7;85.2
62980;BME280;49075;53.988;27.678;2022-12-29T08:45:08;982.8;;;-0.7;85
62980;BME280;49075;53.988;27.678;2022-12-29T08:50:07;982.8;;;-0.7;85.1
62980;BME280;49075;53.988;27.678;2022-12-29T08:54:35;982.8;;;-0.7;85
62980;BME280;49075;53.988;27.678;2022-12-29T09:35:16;982.6;;;-0.6;85.2
62980;BME280;49075;53.988;27.678;2022-12-29T09:40:20;982.6;;;-0.7;85
62980;BME280;49075;53.988;27.678;2022-12-29T09:44:56;982.6;;;-0.7;85
62980;BME280;49075;53.988;27.678;2022-12-29T09:49:38;982.6;;;-0.6;84.8
62980;BME280;49075;53.988;27.678;2022-12-29T09:55:10;982.6;;;-0.6;84.7
62980;BME280;49075;53.988;27.678;2022-12-29T10:00:11;982.5;;;-0.5;84.4
62980;BME280;49075;53.988;27.678;2022-12-29T10:04:44;982.5;;;-0.4;84.1
62980;BME280;49075;53.988;27.678;2022-12-29T10:10:16;982.4;;;-0.5;84.2
62980;BME280;49075;53.988;27.678;2022-12-29T10:14:47;982.4;;;-0.5;84.2
62980;BME280;49075;53.988;27.678;2022-12-29T10:20:14;982.3;;;-0.5;84.6
62980;BME280;49075;53.988;27.678;2022-12-29T10:25:20;982.1;;;-0.6;84.8
62980;BME280;49075;53.988;27.678;2022-12-29T10:30:18;982.1;;;-0.5;84.4
62980;BME280;49075;53.988;27.678;2022-12-29T10:34:36;982.1;;;-0.5;84.4
62980;BME280;49075;53.988;27.678;2022-12-29T10:39:52;982.1;;;-0.4;84.4
62980;BME280;49075;53.988;27.678;2022-12-29T10:45:10;982;;;-0.4;84.3
62980;BME280;49075;53.988;27.678;2022-12-29T10:50:18;982.1;;;-0.4;84.4
62980;BME280;49075;53.988;27.678;2022-12-29T10:54:47;982.1;;;-0.4;84.4
62980;BME280;49075;53.988;27.678;2022-12-29T11:00:18;982.1;;;-0.6;85.4
62980;BME280;49075;53.988;27.678;2022-12-29T11:04:46;982.1;;;-0.6;85.4
62980;BME280;49075;53.988;27.678;2022-12-29T11:09:36;982.1;;;-0.5;84.8
62980;BME280;49075;53.988;27.678;2022-12-29T11:15:12;982.1;;;-0.4;84.7
62980;BME280;49075;53.988;27.678;2022-12-29T11:20:27;982;;;-0.4;84.9
62980;BME280;49075;53.988;27.678;2022-12-29T11:25:06;982;;;-0.4;84.9
62980;BME280;49075;53.988;27.678;2022-12-29T11:29:37;982;;;-0.5;85.1
62980;BME280;49075;53.988;27.678;2022-12-29T11:35:13;981.9;;;-0.4;85
62980;BME280;49075;53.988;27.678;2022-12-29T11:40:15;981.9;;;-0.6;85.6
62980;BME280;49075;53.988;27.678;2022-12-29T11:44:36;981.8;;;-0.6;85.7
62980;BME280;49075;53.988;27.678;2022-12-29T11:50:22;981.8;;;-0.8;86.3
62980;BME280;49075;53.988;27.678;2022-12-29T11:55:00;981.8;;;-0.8;86.3
62980;BME280;49075;53.988;27.678;2022-12-29T11:59:50;981.8;;;-0.7;86.3
62980;BME280;49075;53.988;27.678;2022-12-29T12:05:20;981.7;;;-0.8;86.9
62980;BME280;49075;53.988;27.678;2022-12-29T12:10:23;981.7;;;-0.8;86.8
62980;BME280;49075;53.988;27.678;2022-12-29T12:14:38;981.7;;;-0.8;86.8
62980;BME280;49075;53.988;27.678;2022-12-29T12:19:58;981.7;;;-0.7;86.5
62980;BME280;49075;53.988;27.678;2022-12-29T12:25:10;981.7;;;-0.7;86.7
62980;BME280;49075;53.988;27.678;2022-12-29T12:30:13;981.6;;;-0.8;87
62980;BME280;49075;53.988;27.678;2022-12-29T12:34:50;981.6;;;-0.8;87
62980;BME280;49075;53.988;27.678;2022-12-29T12:40:23;981.5;;;-0.8;87
62980;BME280;49075;53.988;27.678;2022-12-29T12:44:50;981.5;;;-0.8;87
62980;BME280;49075;53.988;27.678;2022-12-29T12:50:08;981.5;;;-0.7;86.8
62980;BME280;49075;53.988;27.678;2022-12-29T12:55:25;981.6;;;-0.8;86.9
62980;BME280;49075;53.988;27.678;2022-12-29T13:00:20;981.6;;;-0.8;87.2
62980;BME280;49075;53.988;27.678;2022-12-29T13:05:20;981.7;;;-0.8;87.2
62980;BME280;49075;53.988;27.678;2022-12-29T13:09:48;981.7;;;-0.8;87.2
62980;BME280;49075;53.988;27.678;2022-12-29T13:14:49;981.8;;;-0.9;87.3
62980;BME280;49075;53.988;27.678;2022-12-29T13:20:22;981.9;;;-0.7;86.8
62980;BME280;49075;53.988;27.678;2022-12-29T13:24:48;981.9;;;-0.7;86.8
62980;BME280;49075;53.988;27.678;2022-12-29T13:29:50;981.9;;;-0.6;86.4
62980;BME280;49075;53.988;27.678;2022-12-29T13:35:01;981.9;;;-0.6;86.2
62980;BME280;49075;53.988;27.678;2022-12-29T13:39:51;981.9;;;-0.6;86.1
62980;BME280;49075;53.988;27.678;2022-12-29T13:45:06;981.8;;;-0.7;86.4
62980;BME280;49075;53.988;27.678;2022-12-29T13:49:58;981.8;;;-0.8;86.9
62980;BME280;49075;53.988;27.678;2022-12-29T13:55:01;981.8;;;-0.7;86.4
62980;BME280;49075;53.988;27.678;2022-12-29T14:00:11;981.9;;;-0.8;86.9
62980;BME280;49075;53.988;27.678;2022-12-29T14:05:27;981.9;;;-0.8;87
62980;BME280;49075;53.988;27.678;2022-12-29T14:10:25;982;;;-0.9;87.3
62980;BME280;49075;53.988;27.678;2022-12-29T14:14:48;982;;;-0.9;87.3
62980;BME280;49075;53.988;27.678;2022-12-29T14:20:16;982;;;-0.9;87.1
62980;BME280;49075;53.988;27.678;2022-12-29T14:25:00;981.9;;;-0.8;86.9
62980;BME280;49075;53.988;27.678;2022-12-29T14:29:43;981.8;;;-0.8;86.9
62980;BME280;49075;53.988;27.678;2022-12-29T14:35:43;981.8;;;-0.7;86.5
62980;BME280;49075;53.988;27.678;2022-12-29T14:40:14;981.8;;;-0.7;86.5
62980;BME280;49075;53.988;27.678;2022-12-29T14:44:58;981.7;;;-0.9;86.9
62980;BME280;49075;53.988;27.678;2022-12-29T14:50:12;981.6;;;-0.7;86.5
62980;BME280;49075;53.988;27.678;2022-12-29T14:55:28;981.7;;;-0.8;86.4
62980;BME280;49075;53.988;27.678;2022-12-29T15:00:22;981.7;;;-0.7;86.2
62980;BME280;49075;53.988;27.678;2022-12-29T15:04:48;981.7;;;-0.7;86.2
62980;BME280;49075;53.988;27.678;2022-12-29T15:10:11;981.7;;;-0.6;85.9
62980;BME280;49075;53.988;27.678;2022-12-29T15:15:00;981.7;;;-0.6;85.8
62980;BME280;49075;53.988;27.678;2022-12-29T15:20:14;981.8;;;-0.6;85.6
62980;BME280;49075;53.988;27.678;2022-12-29T15:25:20;981.8;;;-0.5;85.3
62980;BME280;49075;53.988;27.678;2022-12-29T15:30:00;981.8;;;-0.5;85.3
62980;BME280;49075;53.988;27.678;2022-12-29T15:34:36;981.8;;;-0.6;85.5
62980;BME280;49075;53.988;27.678;2022-12-29T15:40:19;981.8;;;-0.5;85.4
62980;BME280;49075;53.988;27.678;2022-12-29T15:45:23;981.7;;;-0.6;85.2
62980;BME280;49075;53.988;27.678;2022-12-29T15:50:22;981.7;;;-0.5;84.9
62980;BME280;49075;53.988;27.678;2022-12-29T15:54:36;981.7;;;-0.5;84.9
62980;BME280;49075;53.988;27.678;2022-12-29T16:00:20;981.6;;;-0.6;85.2
62980;BME280;49075;53.988;27.678;2022-12-29T16:05:00;981.6;;;-0.6;85.2
62980;BME280;49075;53.988;27.678;2022-12-29T16:10:02;981.7;;;-0.7;85.7
62980;BME280;49075;53.988;27.678;2022-12-29T16:15:20;981.6;;;-0.7;85.8
62980;BME280;49075;53.988;27.678;2022-12-29T16:19:58;981.6;;;-0.7;85.8
62980;BME280;49075;53.988;27.678;2022-12-29T16:25:21;981.5;;;-0.8;86.2
62980;BME280;49075;53.988;27.678;2022-12-29T16:30:17;981.6;;;-0.7;86
62980;BME280;49075;53.988;27.678;2022-12-29T16:35:11;981.6;;;-0.7;86
62980;BME280;49075;53.988;27.678;2022-12-29T16:40:27;981.7;;;-0.8;85.9
62980;BME280;49075;53.988;27.678;2022-12-29T16:44:48;981.7;;;-0.8;85.9
62980;BME280;49075;53.988;27.678;2022-12-29T16:50:10;981.6;;;-0.8;86.1
62980;BME280;49075;53.988;27.678;2022-12-29T16:55:00;981.5;;;-0.9;86.6
62980;BME280;49075;53.988;27.678;2022-12-29T17:00:01;981.5;;;-0.9;86.5
62980;BME280;49075;53.988;27.678;2022-12-29T17:05:20;981.3;;;-0.9;86.9
62980;BME280;49075;53.988;27.678;2022-12-29T17:10:00;981.3;;;-0.9;86.9
62980;BME280;49075;53.988;27.678;2022-12-29T17:14:46;981.3;;;-0.9;86.8
62980;BME280;49075;53.988;27.678;2022-12-29T17:20:03;981.3;;;-1;87.1
62980;BME280;49075;53.988;27.678;2022-12-29T17:25:21;981.2;;;-1.1;87.7
62980;BME280;49075;53.988;27.678;2022-12-29T17:30:22;981.3;;;-1;87.4
62980;BME280;49075;53.988;27.678;2022-12-29T17:34:44;981.3;;;-1;87.4
62980;BME280;49075;53.988;27.678;2022-12-29T17:40:12;981.3;;;-1;87.2
62980;BME280;49075;53.988;27.678;2022-12-29T17:44:38;981.4;;;-1.1;87.3
62980;BME280;49075;53.988;27.678;2022-12-29T17:49:36;981.3;;;-1.1;87.3
62980;BME280;49075;53.988;27.678;2022-12-29T17:55:11;981.3;;;-1.1;87.5
62980;BME280;49075;53.988;27.678;2022-12-29T17:59:56;981.2;;;-1.1;87.5
62980;BME280;49075;53.988;27.678;2022-12-29T18:04:58;981.2;;;-1;87
62980;BME280;49075;53.988;27.678;2022-12-29T18:09:46;981.1;;;-1;86.7
62980;BME280;49075;53.988;27.678;2022-12-29T18:15:00;981.1;;;-0.9;86.3
62980;BME280;49075;53.988;27.678;2022-12-29T18:20:22;981.2;;;-0.8;85.8
62980;BME280;49075;53.988;27.678;2022-12-29T18:24:46;981.2;;;-0.8;85.8
62980;BME280;49075;53.988;27.678;2022-12-29T18:30:00;981.2;;;-0.7;85.2
62980;BME280;49075;53.988;27.678;2022-12-29T18:34:38;981.2;;;-0.6;85.1
62980;BME280;49075;53.988;27.678;2022-12-29T18:39:36;981.3;;;-0.7;85.3
62980;BME280;49075;53.988;27.678;2022-12-29T18:45:20;981.3;;;-0.7;85.2
62980;BME280;49075;53.988;27.678;2022-12-29T18:49:36;981.3;;;-0.7;85.2
62980;BME280;49075;53.988;27.678;2022-12-29T18:55:11;981.3;;;-0.5;84.7
62980;BME280;49075;53.988;27.678;2022-12-29T18:59:50;981.2;;;-0.6;84.8
62980;BME280;49075;53.988;27.678;2022-12-29T19:05:17;981.1;;;-0.6;84.5
62980;BME280;49075;53.988;27.678;2022-12-29T19:10:18;981.1;;;-0.5;84.2
62980;BME280;49075;53.988;27.678;2022-12-29T19:14:44;981.1;;;-0.5;84.2
62980;BME280;49075;53.988;27.678;2022-12-29T19:20:11;981.1;;;-0.5;84.2
62980;BME280;49075;53.988;27.678;2022-12-29T19:25:12;980.9;;;-0.4;83.7
62980;BME280;49075;53.988;27.678;2022-12-29T19:30:22;980.8;;;-0.4;83.3
62980;BME280;49075;53.988;27.678;2022-12-29T19:35:20;980.7;;;-0.4;83.5
62980;BME280;49075;53.988;27.678;2022-12-29T19:39:58;980.7;;;-0.4;83.5
62980;BME280;49075;53.988;27.678;2022-12-29T19:44:46;980.9;;;-0.4;83.1
62980;BME280;49075;53.988;27.678;2022-12-29T19:50:00;980.9;;;-0.4;83.2
62980;BME280;49075;53.988;27.678;2022-12-29T19:55:10;980.9;;;-0.6;83.5
62980;BME280;49075;53.988;27.678;2022-12-29T20:00:20;980.9;;;-0.5;83.5
62980;BME280;49075;53.988;27.678;2022-12-29T20:04:36;980.9;;;-0.5;83.5
62980;BME280;49075;53.988;27.678;2022-12-29T20:09:58;980.9;;;-0.5;83.5
62980;BME280;49075;53.988;27.678;2022-12-29T20:15:12;980.9;;;-0.6;84
62980;BME280;49075;53.988;27.678;2022-12-29T20:19:36;980.9;;;-0.6;84
62980;BME280;49075;53.988;27.678;2022-12-29T20:25:20;981;;;-0.2;83.1
62980;BME280;49075;53.988;27.678;2022-12-29T20:29:48;981;;;-0.2;83.1
62980;BME280;49075;53.988;27.678;2022-12-29T20:34:48;981;;;-0.2;83.1
62980;BME280;49075;53.988;27.678;2022-12-29T20:39:48;981;;;-0.3;83.7
62980;BME280;49075;53.988;27.678;2022-12-29T20:45:12;980.8;;;-0.4;84.3
62980;BME280;49075;53.988;27.678;2022-12-29T20:50:20;980.8;;;-0.6;85.1
62980;BME280;49075;53.988;27.678;2022-12-29T20:54:58;980.8;;;-0.6;85.1
62980;BME280;49075;53.988;27.678;2022-12-29T21:00:10;980.8;;;-0.6;85.4
62980;BME280;49075;53.988;27.678;2022-12-29T21:05:22;980.7;;;-0.3;84.8
62980;BME280;49075;53.988;27.678;2022-12-29T21:10:20;980.7;;;-0.5;85.3
62980;BME280;49075;53.988;27.678;2022-12-29T21:15:18;980.7;;;-0.3;85
62980;BME280;49075;53.988;27.678;2022-12-29T21:19:46;980.7;;;-0.3;85
62980;BME280;49075;53.988;27.678;2022-12-29T21:25:00;980.8;;;-0.3;84.8
62980;BME280;49075;53.988;27.678;2022-12-29T21:29:50;980.8;;;-0.1;84.5
62980;BME280;49075;53.988;27.678;2022-12-29T21:34:48;980.8;;;-0.2;84.5
62980;BME280;49075;53.988;27.678;2022-12-29T21:40:12;980.8;;;-0.2;84.5
62980;BME280;49075;53.988;27.678;2022-12-29T21:45:08;980.8;;;-0.2;84.5
62980;BME280;49075;53.988;27.678;2022-12-29T21:50:22;980.8;;;-0.1;84
62980;BME280;49075;53.988;27.678;2022-12-29T21:55:12;980.8;;;0;83.9
62980;BME280;49075;53.988;27.678;2022-12-29T22:00:12;980.8;;;-0.2;84.1
62980;BME280;49075;53.988;27.678;2022-12-29T22:04:58;980.8;;;-0.2;84.1
62980;BME280;49075;53.988;27.678;2022-12-29T22:09:58;980.8;;;-0.2;84.5
62980;BME280;49075;53.988;27.678;2022-12-29T22:15:18;980.5;;;-0.2;84.4
62980;BME280;49075;53.988;27.678;2022-12-29T22:19:58;980.5;;;-0.2;84.4
62980;BME280;49075;53.988;27.678;2022-12-29T22:24:56;980.6;;;-0.1;83.7
62980;BME280;49075;53.988;27.678;2022-12-29T22:30:08;980.6;;;0.2;83
62980;BME280;49075;53.988;27.678;2022-12-29T22:34:36;980.6;;;0.3;82.7
62980;BME280;49075;53.988;27.678;2022-12-29T22:40:18;980.7;;;0.4;82.3
62980;BME280;49075;53.988;27.678;2022-12-29T22:45:10;980.7;;;0.4;82.3
62980;BME280;49075;53.988;27.678;2022-12-29T22:49:48;980.6;;;0.4;82.4
62980;BME280;49075;53.988;27.678;2022-12-29T22:54:36;980.6;;;0.4;82.1
62980;BME280;49075;53.988;27.678;2022-12-29T22:59:56;980.6;;;0.4;82.2
62980;BME280;49075;53.988;27.678;2022-12-29T23:05:16;980.6;;;0.3;82.3
62980;BME280;49075;53.988;27.678;2022-12-29T23:09:44;980.6;;;0.3;82.3
62980;BME280;49075;53.988;27.678;2022-12-29T23:15:16;980.5;;;0.2;82.4
62980;BME280;49075;53.988;27.678;2022-12-29T23:20:08;980.5;;;0.2;82.4
62980;BME280;49075;53.988;27.678;2022-12-29T23:24:44;980.6;;;0.2;82.3
62980;BME280;49075;53.988;27.678;2022-12-29T23:30:16;980.5;;;0.1;82.5
62980;BME280;49075;53.988;27.678;2022-12-29T23:35:08;980.5;;;0.1;82.5
62980;BME280;49075;53.988;27.678;2022-12-29T23:40:06;980.5;;;0.1;82.5
62980;BME280;49075;53.988;27.678;2022-12-29T23:44:54;980.5;;;0.1;82.4
62980;BME280;49075;53.988;27.678;2022-12-29T23:49:56;980.5;;;0.1;82.3
62980;BME280;49075;53.988;27.678;2022-12-29T23:55:16;980.5;;;0;82.6
62980;BME280;49075;53.988;27.678;2022-12-29T23:59:54;980.5;;;0;82.6
